Artesia, NM

10:58 AM MDT on September 20, 2017 (GMT -0600)
Artesia Municipal

Weather History for KATS - October, 2012

Change the Weather History Date:

Thursday, October 4, 2012

  Actual Average Record
Temperature  
Mean Temperature 64 °F -  
Max Temperature 73 °F 81 °F 94 °F (1991)
Min Temperature 55 °F 48 °F 34 °F (1975)
Degree Days  
Heating Degree Days 1    
Growing Degree Days 14 (Base 50)    
Moisture  
Dew Point 39 °F    
Average Humidity 41    
Maximum Humidity 67    
Minimum Humidity 22    
Precipitation  
Precipitation 0.00 in - - ()
Sea Level Pressure  
Sea Level Pressure 30.15 in    
Wind  
Wind Speed 12 mph (NNE)    
Max Wind Speed 23 mph    
Max Gust Speed 29 mph    
Visibility 10 miles    
Events      
Averages and records for this station are not official NWS values.
T = Trace of Precipitation, MM = Missing Value Source: NWS Daily Summary

Daily Weather History Graph

Daily Weather History Graph

Search for Another Location

Airport or City:

Trip Planner

Search our weather history database for the weather conditions in past years. The results will help you decide how hot, cold, wet, or windy it might be!

Date:

Astronomy

Oct. 04, 2012 Rise Set
Actual Time 6:54 AM MDT 6:37 PM MDT
Civil Twilight 6:29 AM MDT 7:02 PM MDT
Nautical Twilight 6:01 AM MDT 7:31 PM MDT
Astronomical Twilight 5:32 AM MDT 7:59 PM MDT
Moon 9:30 PM MDT (10/4) 10:59 AM MDT (10/4)
Length of Visible Light 12h 32m
Length of Day
11h 43m
Waning Gibbous, 81% of the Moon is Illuminated
Oct 4
Waning Gibbous
Oct 8
Last Quarter
Oct 15
New
Oct 21
First Quarter
Oct 29
Full

Hourly Weather History & Observations

Time (MDT) Temp. Dew Point Humidity Pressure Visibility Wind Dir Wind Speed Gust Speed Precip Events Conditions
12:15 AM 73.4 °F 32.0 °F 22% 29.97 in 10.0 mi West 17.3 mph - N/A   Clear
12:35 AM 71.6 °F 33.8 °F 25% 29.97 in 10.0 mi West 16.1 mph - N/A   Clear
12:55 AM 69.8 °F 35.6 °F 28% 29.98 in 10.0 mi West 13.8 mph - N/A   Clear
1:15 AM 69.8 °F 33.8 °F 27% 29.98 in 10.0 mi West 15.0 mph - N/A   Clear
1:35 AM 68.0 °F 35.6 °F 30% 29.99 in 10.0 mi West 13.8 mph - N/A   Clear
1:55 AM 68.0 °F 35.6 °F 30% 29.99 in 10.0 mi West 11.5 mph - N/A   Clear
2:15 AM 64.4 °F 35.6 °F 34% 30.00 in 10.0 mi WNW 3.5 mph - N/A   Clear
2:35 AM 64.4 °F 35.6 °F 34% 30.01 in 10.0 mi East 5.8 mph - N/A   Clear
2:55 AM 68.0 °F 35.6 °F 30% 30.01 in 10.0 mi East 3.5 mph - N/A   Clear
3:15 AM 64.4 °F 37.4 °F 37% 30.01 in 10.0 mi East 6.9 mph - N/A   Clear
3:35 AM 66.2 °F 35.6 °F 32% 30.02 in 10.0 mi NE 3.5 mph - N/A   Clear
3:55 AM 62.6 °F 37.4 °F 39% 30.03 in 10.0 mi ENE 5.8 mph - N/A   Clear
4:15 AM 60.8 °F 39.2 °F 45% 30.04 in 10.0 mi NNE 10.4 mph - N/A   Clear
4:35 AM 62.6 °F 37.4 °F 39% 30.04 in 10.0 mi NNW 10.4 mph - N/A   Clear
4:55 AM 62.6 °F 37.4 °F 39% 30.05 in 10.0 mi North 8.1 mph - N/A   Clear
5:15 AM 60.8 °F 37.4 °F 42% 30.08 in 10.0 mi North 15.0 mph 23.0 mph N/A   Clear
5:35 AM 64.4 °F 33.8 °F 32% 30.10 in 10.0 mi North 15.0 mph - N/A   Clear
5:55 AM 62.6 °F 33.8 °F 34% 30.12 in 10.0 mi North 17.3 mph 23.0 mph N/A   Clear
6:15 AM 59.0 °F 37.4 °F 45% 30.13 in 10.0 mi North 23.0 mph - N/A   Clear
6:35 AM 57.2 °F 39.2 °F 51% 30.16 in 10.0 mi North 18.4 mph - N/A   Clear
6:55 AM 57.2 °F 39.2 °F 51% 30.17 in 9.0 mi North 21.9 mph 27.6 mph N/A   Clear
7:15 AM 55.4 °F 39.2 °F 54% 30.19 in 8.0 mi North 19.6 mph 23.0 mph N/A   Clear
7:35 AM 55.4 °F 39.2 °F 54% 30.21 in 9.0 mi North 18.4 mph 23.0 mph N/A   Clear
7:55 AM 57.2 °F 37.4 °F 48% 30.22 in 8.0 mi North 23.0 mph 28.8 mph N/A   Clear
8:15 AM 57.2 °F 37.4 °F 48% 30.24 in 10.0 mi North 18.4 mph 25.3 mph N/A   Clear
8:35 AM 57.2 °F 37.4 °F 48% 30.26 in 10.0 mi North 20.7 mph - N/A   Clear
8:55 AM 59.0 °F 37.4 °F 45% 30.28 in 9.0 mi North 18.4 mph 23.0 mph N/A   Clear
9:15 AM 59.0 °F 37.4 °F 45% 30.28 in 9.0 mi NNW 17.3 mph - N/A   Clear
9:35 AM 59.0 °F 37.4 °F 45% 30.28 in 10.0 mi North 21.9 mph 26.5 mph N/A   Clear
9:55 AM 59.0 °F 37.4 °F 45% 30.29 in 10.0 mi North 18.4 mph 25.3 mph N/A   Clear
10:15 AM 60.8 °F 37.4 °F 42% 30.29 in 10.0 mi North 17.3 mph - N/A   Clear
10:35 AM 60.8 °F 37.4 °F 42% 30.29 in 10.0 mi NNE 18.4 mph 24.2 mph N/A   Clear
10:55 AM 62.6 °F 37.4 °F 39% 30.29 in 10.0 mi North 16.1 mph 23.0 mph N/A   Clear
11:15 AM 62.6 °F 37.4 °F 39% 30.29 in 10.0 mi North 18.4 mph 21.9 mph N/A   Clear
11:35 AM 62.6 °F 37.4 °F 39% 30.29 in 10.0 mi North 17.3 mph 20.7 mph N/A   Clear
11:55 AM 62.6 °F 37.4 °F 39% 30.28 in 10.0 mi NNE 11.5 mph 20.7 mph N/A   Clear
12:15 PM 64.4 °F 37.4 °F 37% 30.28 in 10.0 mi North 12.7 mph 20.7 mph N/A   Clear
12:35 PM 64.4 °F 37.4 °F 37% 30.28 in 10.0 mi NNE 10.4 mph - N/A   Clear
12:55 PM 64.4 °F 37.4 °F 37% 30.26 in 10.0 mi North 9.2 mph 16.1 mph N/A   Clear
1:15 PM 66.2 °F 37.4 °F 35% 30.25 in 10.0 mi NE 6.9 mph - N/A   Clear
1:55 PM 68.0 °F 37.4 °F 33% 30.23 in 10.0 mi NNW 4.6 mph - N/A   Clear
2:15 PM 68.0 °F 37.4 °F 33% 30.22 in 10.0 mi NW 4.6 mph - N/A   Clear
2:35 PM 68.0 °F 37.4 °F 33% 30.21 in 10.0 mi NNW 4.6 mph - N/A   Clear
3:15 PM 69.8 °F 39.2 °F 33% 30.19 in 10.0 mi NNW 3.5 mph - N/A   Clear
3:35 PM 69.8 °F 39.2 °F 33% 30.18 in 10.0 mi Calm Calm - N/A   Clear
3:55 PM 69.8 °F 39.2 °F 33% 30.17 in 10.0 mi Calm Calm - N/A   Clear
4:15 PM 71.6 °F 39.2 °F 31% 30.16 in 10.0 mi Calm Calm - N/A   Clear
4:35 PM 71.6 °F 39.2 °F 31% 30.15 in 10.0 mi ESE 3.5 mph - N/A   Clear
4:55 PM 71.6 °F 39.2 °F 31% 30.15 in 10.0 mi East 3.5 mph - N/A   Clear
5:15 PM 71.6 °F 39.2 °F 31% 30.14 in 10.0 mi SSE 4.6 mph - N/A   Clear
5:35 PM 71.6 °F 39.2 °F 31% 30.14 in 10.0 mi SSE 5.8 mph - N/A   Clear
5:55 PM 71.6 °F 39.2 °F 31% 30.13 in 10.0 mi SSE 4.6 mph - N/A   Clear
6:15 PM 71.6 °F 41.0 °F 33% 30.13 in 10.0 mi South 4.6 mph - N/A   Clear
6:35 PM 69.8 °F 41.0 °F 35% 30.13 in 10.0 mi South 6.9 mph - N/A   Clear
7:15 PM 66.2 °F 42.8 °F 43% 30.13 in 10.0 mi South 5.8 mph - N/A   Clear
7:35 PM 64.4 °F 44.6 °F 49% 30.14 in 10.0 mi SSW 6.9 mph - N/A   Clear
8:15 PM 62.6 °F 42.8 °F 48% 30.15 in 10.0 mi SSW 5.8 mph - N/A   Clear
8:35 PM 62.6 °F 44.6 °F 52% 30.15 in 10.0 mi SSW 6.9 mph - N/A   Clear
8:55 PM 62.6 °F 44.6 °F 52% 30.14 in 10.0 mi SSW 5.8 mph - N/A   Clear
9:15 PM 60.8 °F 44.6 °F 55% 30.14 in 10.0 mi South 6.9 mph - N/A   Clear
9:35 PM 60.8 °F 44.6 °F 55% 30.14 in 10.0 mi SSE 3.5 mph - N/A   Clear
9:55 PM 60.8 °F 44.6 °F 55% 30.14 in 10.0 mi SSE 4.6 mph - N/A   Clear
10:15 PM 59.0 °F 44.6 °F 59% 30.14 in 10.0 mi SE 5.8 mph - N/A   Clear
10:35 PM 59.0 °F 44.6 °F 59% 30.13 in 10.0 mi SSE 6.9 mph - N/A   Clear
10:55 PM 57.2 °F 46.4 °F 67% 30.13 in 10.0 mi South 8.1 mph - N/A   Clear
11:15 PM 57.2 °F 46.4 °F 67% 30.13 in 10.0 mi SSE 8.1 mph - N/A   Clear
11:35 PM 57.2 °F 46.4 °F 67% 30.12 in 10.0 mi SSE 9.2 mph - N/A   Clear
11:55 PM 57.2 °F 46.4 °F 67% 30.12 in 10.0 mi SE 6.9 mph - N/A   Clear